Аэропорт: Наримановка. Костанай

ICAO: UAUU

METAR:
2021-07-28 14:00:00
UAUU 281400Z 34006MPS CAVOK 20/07 Q1010 R33/CLRD70 NOSIG RMK QFE742/0989
METAR:
2021-07-28 11:04:00
TAF UAUU 281104Z 2812/2821 35006MPS 9999 SCT030CB TEMPO 2812/2815 36007G15MPS 3100 -TSRA BKN015CB BECMG 2815/2816 01004G11MPS